createdAt,value
2018-04-14T00:02:00.393Z,61.39
2018-04-14T00:04:28.841Z,61.25
2018-04-14T00:06:57.243Z,62.71
2018-04-14T00:09:25.655Z,63.74
2018-04-14T00:11:54.046Z,62.30
2018-04-14T00:14:22.463Z,61.42
2018-04-14T00:16:50.821Z,62.77
2018-04-14T00:19:19.289Z,63.93
2018-04-14T00:21:47.709Z,62.18
2018-04-14T00:24:16.123Z,61.88
2018-04-14T00:26:44.530Z,61.36
2018-04-14T00:29:12.901Z,61.88
2018-04-14T00:31:41.269Z,60.40
2018-04-14T00:34:09.637Z,60.31
2018-04-14T00:36:38.006Z,65.31
2018-04-14T00:39:06.426Z,62.37
2018-04-14T00:41:34.882Z,64.30
2018-04-14T00:44:03.248Z,63.13
2018-04-14T00:46:31.614Z,62.50
2018-04-14T00:48:59.980Z,62.75
2018-04-14T00:51:28.389Z,61.82
2018-04-14T00:53:56.773Z,62.86
2018-04-14T00:56:25.258Z,62.33
2018-04-14T00:58:53.641Z,60.78
2018-04-14T01:01:22.197Z,63.79
2018-04-14T01:03:50.618Z,61.90
2018-04-14T01:06:19.009Z,62.39
2018-04-14T01:08:47.368Z,64.60
2018-04-14T01:11:15.765Z,62.39
2018-04-14T01:13:44.203Z,62.69
2018-04-14T01:16:12.617Z,63.49
2018-04-14T01:18:41.155Z,63.74
2018-04-14T01:21:09.558Z,62.64
2018-04-14T01:23:37.937Z,64.01
2018-04-14T01:26:06.301Z,62.55
2018-04-14T01:28:34.669Z,61.88
2018-04-14T01:31:03.202Z,63.49
2018-04-14T01:33:31.561Z,62.00
2018-04-14T01:35:59.927Z,61.27
2018-04-14T01:38:28.291Z,61.75
2018-04-14T01:40:56.690Z,63.17
2018-04-14T01:43:25.227Z,61.78
2018-04-14T01:45:53.625Z,61.67
2018-04-14T01:48:22.100Z,61.24
2018-04-14T01:50:50.505Z,62.46
2018-04-14T01:53:18.988Z,61.09
2018-04-14T01:55:47.532Z,60.34
2018-04-14T01:58:16.129Z,60.65
2018-04-14T02:00:44.547Z,60.12
2018-04-14T02:03:12.953Z,59.93
2018-04-14T02:05:41.356Z,59.52
2018-04-14T02:08:09.820Z,59.77
2018-04-14T02:10:38.277Z,59.89
2018-04-14T02:13:06.676Z,59.49
2018-04-14T02:15:35.043Z,60.96
2018-04-14T02:18:03.522Z,61.58
2018-04-14T02:20:31.938Z,60.24
2018-04-14T02:23:00.317Z,59.58
2018-04-14T02:25:28.703Z,63.16
2018-04-14T02:27:57.103Z,61.93
2018-04-14T02:30:25.505Z,61.35
2018-04-14T02:32:53.985Z,62.56
2018-04-14T02:35:22.445Z,60.68
2018-04-14T02:37:50.885Z,61.00
2018-04-14T02:40:19.282Z,60.99
2018-04-14T02:42:47.649Z,60.43
2018-04-14T02:45:16.043Z,60.96
2018-04-14T02:47:44.492Z,60.84
2018-04-14T02:50:12.873Z,60.46
2018-04-14T02:52:41.388Z,61.02
2018-04-14T02:55:09.755Z,60.98
2018-04-14T02:57:38.112Z,60.70
2018-04-14T03:00:30.116Z,60.10
2018-04-14T03:02:58.481Z,60.94
2018-04-14T03:05:26.906Z,60.26
2018-04-14T03:07:55.353Z,60.68
2018-04-14T03:10:23.754Z,61.67
2018-04-14T03:12:52.116Z,62.04
2018-04-14T03:15:20.516Z,61.22
2018-04-14T03:17:49.033Z,61.79
2018-04-14T03:20:17.406Z,60.10
2018-04-14T03:22:45.762Z,59.99
2018-04-14T03:25:14.124Z,61.30
2018-04-14T03:27:42.493Z,64.81
2018-04-14T03:30:11.043Z,62.31
2018-04-14T03:32:39.418Z,62.24
2018-04-14T03:35:07.789Z,61.34
2018-04-14T03:37:36.176Z,60.30
2018-04-14T03:40:04.536Z,60.12
2018-04-14T03:42:32.976Z,60.22
2018-04-14T03:45:01.354Z,59.83
2018-04-14T03:47:29.823Z,60.28
2018-04-14T03:49:58.262Z,60.03
2018-04-14T03:52:26.641Z,60.57
2018-04-14T03:54:55.198Z,61.28
2018-04-14T03:57:23.563Z,61.18
2018-04-14T03:59:51.959Z,60.28
2018-04-14T04:02:20.414Z,60.00
2018-04-14T04:04:48.813Z,59.97
2018-04-14T04:07:17.278Z,59.81
2018-04-14T04:09:45.676Z,60.55
2018-04-14T04:12:14.057Z,60.24
2018-04-14T04:14:42.524Z,60.62
2018-04-14T04:17:10.897Z,61.11
2018-04-14T04:19:50.951Z,60.72
2018-04-14T04:22:31.194Z,60.27
2018-04-14T04:28:04.131Z,60.83
2018-04-14T04:30:32.282Z,60.17
2018-04-14T04:33:00.383Z,60.33
2018-04-14T04:35:28.481Z,61.06
2018-04-14T04:37:56.591Z,60.46
2018-04-14T04:40:24.871Z,60.81
2018-04-14T04:42:53.043Z,62.13
2018-04-14T04:45:21.145Z,61.39
2018-04-14T04:47:49.242Z,61.47
2018-04-14T04:50:17.414Z,61.66
2018-04-14T04:52:45.549Z,61.88
2018-04-14T04:55:13.647Z,61.66
2018-04-14T04:57:41.745Z,61.08
2018-04-14T05:00:09.844Z,61.37
2018-04-14T05:02:38.128Z,61.25
2018-04-14T05:05:06.237Z,60.71
2018-04-14T05:07:34.348Z,60.37
2018-04-14T05:10:02.464Z,60.68
2018-04-14T05:12:30.579Z,60.60
2018-04-14T05:14:58.737Z,60.71
2018-04-14T05:17:26.862Z,60.54
2018-04-14T05:19:54.976Z,60.60
2018-04-14T05:22:23.106Z,60.91
2018-04-14T05:24:51.230Z,60.88
2018-04-14T05:27:19.353Z,60.74
2018-04-14T05:29:47.477Z,60.88
2018-04-14T05:32:15.629Z,60.65
2018-04-14T05:34:43.849Z,62.37
2018-04-14T05:37:11.965Z,62.67
2018-04-14T05:39:40.159Z,60.15
2018-04-14T05:42:08.279Z,59.32
2018-04-14T05:44:36.443Z,57.72
2018-04-14T05:47:04.566Z,59.83
2018-04-14T05:49:32.651Z,59.44
2018-04-14T05:52:00.769Z,59.42
2018-04-14T05:54:29.006Z,60.30
2018-04-14T05:56:57.197Z,59.01
2018-04-14T05:59:25.318Z,58.09
2018-04-14T06:01:53.546Z,58.70
2018-04-14T06:04:21.682Z,59.70
2018-04-14T06:06:49.794Z,59.15
2018-04-14T06:09:18.102Z,57.48
2018-04-14T06:11:46.232Z,58.00
2018-04-14T06:14:14.350Z,58.33
2018-04-14T06:16:42.561Z,56.52
2018-04-14T06:19:10.730Z,52.24
2018-04-14T06:21:38.993Z,50.81
2018-04-14T06:24:07.165Z,51.04
2018-04-14T06:26:35.252Z,49.69
2018-04-14T06:29:03.344Z,48.69
2018-04-14T06:31:31.456Z,49.18
2018-04-14T06:34:00.646Z,47.71
2018-04-14T06:36:28.718Z,47.53
2018-04-14T06:38:56.798Z,47.62
2018-04-14T06:41:25.126Z,47.16
2018-04-14T06:43:53.212Z,46.38
2018-04-14T06:46:21.399Z,44.22
2018-04-14T06:48:49.486Z,43.86
2018-04-14T06:51:17.567Z,43.15
2018-04-14T06:53:45.653Z,41.96
2018-04-14T06:56:13.742Z,44.66
2018-04-14T06:58:41.905Z,42.53
2018-04-14T07:01:10.033Z,40.95
2018-04-14T07:03:38.125Z,39.79
2018-04-14T07:06:06.215Z,38.68
2018-04-14T07:08:34.347Z,38.92
2018-04-14T07:11:02.493Z,39.17
2018-04-14T07:13:30.806Z,37.76
2018-04-14T07:15:58.922Z,36.86
2018-04-14T07:18:27.074Z,36.07
2018-04-14T07:20:55.190Z,35.24
2018-04-14T07:23:23.382Z,36.12
2018-04-14T07:25:51.585Z,35.76
2018-04-14T07:28:19.704Z,36.07
2018-04-14T07:30:47.831Z,35.96
2018-04-14T07:33:15.962Z,37.17
2018-04-14T07:35:44.236Z,40.90
2018-04-14T07:38:12.369Z,42.75
2018-04-14T07:40:40.489Z,43.96
2018-04-14T07:43:08.611Z,44.54
2018-04-14T07:45:36.733Z,47.21
2018-04-14T07:48:04.885Z,47.63
2018-04-14T07:50:33.039Z,45.61
2018-04-14T07:53:01.187Z,46.49
2018-04-14T07:55:29.306Z,46.62
2018-04-14T07:57:57.483Z,46.09
2018-04-14T08:00:25.664Z,45.98
2018-04-14T08:02:53.777Z,44.19
2018-04-14T08:05:21.895Z,42.58
2018-04-14T08:07:50.036Z,38.22
2018-04-14T08:10:18.162Z,37.81
2018-04-14T08:12:46.458Z,37.62
2018-04-14T08:15:14.588Z,37.61
2018-04-14T08:17:42.706Z,39.12
2018-04-14T08:20:10.815Z,40.48
2018-04-14T08:22:38.948Z,41.19
2018-04-14T08:25:07.117Z,39.68
2018-04-14T08:27:35.237Z,39.26
2018-04-14T08:30:03.423Z,37.32
2018-04-14T08:32:31.583Z,36.32
2018-04-14T08:34:59.713Z,37.55
2018-04-14T08:37:27.934Z,37.98
2018-04-14T08:39:56.029Z,36.63
2018-04-14T08:42:24.160Z,37.85
2018-04-14T08:44:52.279Z,38.80
2018-04-14T08:47:20.397Z,41.94
2018-04-14T08:49:48.651Z,45.38
2018-04-14T08:52:16.776Z,46.08
2018-04-14T08:54:45.121Z,46.87
2018-04-14T08:57:13.208Z,47.11
2018-04-14T08:59:41.289Z,44.66
2018-04-14T09:02:10.387Z,41.84
2018-04-14T09:04:38.474Z,41.02
2018-04-14T09:07:06.744Z,40.75
2018-04-14T09:09:34.900Z,38.53
2018-04-14T09:12:02.986Z,37.00
2018-04-14T09:14:31.074Z,34.82
2018-04-14T09:16:59.177Z,35.73
2018-04-14T09:19:27.667Z,36.47
2018-04-14T09:21:56.072Z,38.29
2018-04-14T09:24:24.585Z,35.85
2018-04-14T09:26:53.129Z,37.13
2018-04-14T09:29:21.549Z,39.00
2018-04-14T09:31:49.985Z,40.50
2018-04-14T09:34:18.444Z,41.31
2018-04-14T09:36:46.852Z,36.87
2018-04-14T09:39:15.216Z,35.79
2018-04-14T09:41:43.674Z,35.81
2018-04-14T09:44:12.062Z,35.69
2018-04-14T09:46:40.472Z,33.97
2018-04-14T09:49:08.864Z,33.16
2018-04-14T09:51:37.256Z,32.18
2018-04-14T09:54:05.730Z,31.34
2018-04-14T09:56:34.117Z,33.41
2018-04-14T09:59:02.505Z,31.54
2018-04-14T10:01:30.903Z,31.84
2018-04-14T10:03:59.420Z,30.81
2018-04-14T10:06:27.903Z,31.32
2018-04-14T10:08:56.288Z,30.78
2018-04-14T10:11:24.705Z,30.42
2018-04-14T10:13:53.318Z,28.77
2018-04-14T10:16:21.812Z,30.34
2018-04-14T10:18:50.224Z,30.12
2018-04-14T10:21:18.613Z,31.31
2018-04-14T10:23:47.148Z,30.08
2018-04-14T10:26:15.517Z,29.47
2018-04-14T10:28:43.955Z,28.00
2018-04-14T10:31:12.437Z,27.89
2018-04-14T10:33:40.854Z,27.71
2018-04-14T10:36:09.231Z,29.84
2018-04-14T10:38:37.660Z,29.63
2018-04-14T10:41:06.214Z,29.10
2018-04-14T10:43:34.585Z,28.90
2018-04-14T10:46:02.986Z,30.43
2018-04-14T10:48:31.385Z,31.82
2018-04-14T10:50:59.879Z,31.67
2018-04-14T10:53:28.294Z,32.71
2018-04-14T10:55:56.758Z,34.46
2018-04-14T10:58:25.264Z,37.47
2018-04-14T11:00:53.672Z,38.58
2018-04-14T11:03:22.042Z,36.40
2018-04-14T11:05:50.428Z,33.84
2018-04-14T11:08:18.777Z,32.61
2018-04-14T11:10:47.229Z,32.65
2018-04-14T11:13:15.591Z,30.83
2018-04-14T11:15:43.948Z,28.50
2018-04-14T11:18:12.315Z,29.08
2018-04-14T11:20:40.667Z,28.83
2018-04-14T11:23:09.099Z,27.35
2018-04-14T11:25:37.461Z,28.53
2018-04-14T11:28:05.809Z,29.31
2018-04-14T11:30:34.189Z,30.23
2018-04-14T11:33:02.656Z,27.94
2018-04-14T11:35:32.120Z,28.35
2018-04-14T11:38:00.476Z,27.73
2018-04-14T11:40:28.833Z,28.65
2018-04-14T11:42:57.189Z,28.56
2018-04-14T11:45:25.545Z,31.20
2018-04-14T11:47:53.899Z,29.07
2018-04-14T11:50:22.271Z,29.16
2018-04-14T11:52:50.774Z,30.11
2018-04-14T11:55:19.141Z,29.05
2018-04-14T11:57:47.512Z,28.21
2018-04-14T12:00:15.887Z,28.93
2018-04-14T12:02:44.327Z,29.07
2018-04-14T12:05:12.826Z,31.18
2018-04-14T12:07:41.175Z,33.69
2018-04-14T12:10:09.544Z,33.10
2018-04-14T12:12:37.899Z,34.87
2018-04-14T12:15:06.272Z,34.53
2018-04-14T12:17:34.714Z,35.19
2018-04-14T12:20:03.054Z,34.93
2018-04-14T12:22:31.421Z,33.78
2018-04-14T12:24:59.773Z,34.04
2018-04-14T12:27:28.129Z,33.76
2018-04-14T12:29:56.555Z,34.18
2018-04-14T12:32:24.934Z,34.67
2018-04-14T12:34:53.286Z,35.66
2018-04-14T12:37:21.772Z,35.46
2018-04-14T12:39:50.139Z,36.68
2018-04-14T12:42:18.558Z,35.19
2018-04-14T12:44:46.926Z,35.06
2018-04-14T12:47:15.276Z,32.95
2018-04-14T12:49:43.633Z,32.12
2018-04-14T12:52:11.989Z,33.75
2018-04-14T12:54:40.433Z,35.41
2018-04-14T12:57:08.795Z,35.39
2018-04-14T12:59:37.156Z,36.26
2018-04-14T13:02:05.607Z,35.60
2018-04-14T13:04:34.001Z,34.98
2018-04-14T13:07:02.395Z,35.47
2018-04-14T13:09:30.801Z,36.10
2018-04-14T13:11:59.189Z,35.82
2018-04-14T13:14:27.634Z,36.08
2018-04-14T13:16:56.042Z,36.55
2018-04-14T13:19:24.435Z,37.36
2018-04-14T13:21:52.905Z,36.79
2018-04-14T13:24:21.301Z,36.19
2018-04-14T13:26:49.903Z,34.44
2018-04-14T13:29:19.280Z,34.66
2018-04-14T13:31:47.662Z,35.42
2018-04-14T13:34:16.055Z,36.17
2018-04-14T13:36:44.710Z,36.44
2018-04-14T13:39:13.168Z,35.95
2018-04-14T13:41:41.559Z,35.37
2018-04-14T13:44:10.033Z,35.93
2018-04-14T13:46:38.446Z,36.36
2018-04-14T13:49:06.837Z,34.92
2018-04-14T13:51:35.373Z,35.90
2018-04-14T13:54:03.765Z,36.40
2018-04-14T13:56:33.041Z,37.25
2018-04-14T13:59:01.403Z,37.69
2018-04-14T14:01:29.774Z,36.94
2018-04-14T14:03:58.199Z,36.61
2018-04-14T14:06:26.554Z,35.16
2018-04-14T14:08:54.934Z,34.92
2018-04-14T14:11:23.304Z,35.21
2018-04-14T14:13:51.663Z,35.76
2018-04-14T14:16:20.038Z,35.13
2018-04-14T14:18:48.391Z,34.82
2018-04-14T14:21:16.794Z,34.17
2018-04-14T14:23:45.255Z,34.07
2018-04-14T14:26:13.706Z,32.12
2018-04-14T14:28:42.182Z,31.84
2018-04-14T14:31:10.563Z,32.14
2018-04-14T14:33:38.942Z,33.00
2018-04-14T14:36:07.346Z,33.16
2018-04-14T14:38:35.902Z,34.15
2018-04-14T14:41:04.324Z,33.02
2018-04-14T14:43:32.838Z,34.07
2018-04-14T14:46:01.294Z,33.64
2018-04-14T14:48:29.826Z,35.30
2018-04-14T14:50:58.202Z,34.28
2018-04-14T14:53:26.614Z,34.32
2018-04-14T14:55:55.164Z,34.16
2018-04-14T14:58:23.561Z,34.58
2018-04-14T15:00:51.950Z,34.23
2018-04-14T15:03:20.411Z,36.18
2018-04-14T15:05:48.872Z,35.49
2018-04-14T15:08:17.264Z,35.31
2018-04-14T15:10:45.659Z,34.91
2018-04-14T15:13:14.128Z,34.13
2018-04-14T15:15:42.545Z,34.26
2018-04-14T15:18:10.993Z,35.95
2018-04-14T15:20:39.368Z,35.25
2018-04-14T15:23:07.842Z,34.99
2018-04-14T15:25:36.479Z,34.02
2018-04-14T15:28:04.868Z,34.67
2018-04-14T15:30:33.340Z,34.63
2018-04-14T15:33:01.732Z,36.29
2018-04-14T15:35:30.251Z,35.89
2018-04-14T15:37:58.650Z,37.30
2018-04-14T15:40:27.038Z,37.74
2018-04-14T15:42:55.430Z,36.80
2018-04-14T15:45:23.818Z,37.09
2018-04-14T15:47:52.280Z,36.99
2018-04-14T15:50:20.673Z,37.51
2018-04-14T15:52:49.042Z,36.76
2018-04-14T15:55:17.438Z,37.56
2018-04-14T15:57:45.851Z,38.19
2018-04-14T16:00:14.387Z,37.87
2018-04-14T16:02:42.793Z,37.79
2018-04-14T16:05:11.178Z,37.26
2018-04-14T16:07:39.610Z,37.39
2018-04-14T16:10:08.009Z,36.97
2018-04-14T16:12:36.573Z,36.80
2018-04-14T16:15:04.974Z,37.52
2018-04-14T16:17:33.383Z,36.68
2018-04-14T16:20:01.797Z,37.55
2018-04-14T16:22:30.285Z,36.60
2018-04-14T16:24:58.797Z,36.92
2018-04-14T16:27:27.194Z,36.98
2018-04-14T16:29:55.648Z,37.08
2018-04-14T16:32:24.041Z,36.76
2018-04-14T16:34:52.391Z,36.96
2018-04-14T16:37:20.839Z,37.42
2018-04-14T16:39:49.193Z,36.83
2018-04-14T16:42:17.613Z,36.59
2018-04-14T16:44:46.003Z,36.32
2018-04-14T16:47:14.371Z,36.48
2018-04-14T16:49:42.748Z,36.27
2018-04-14T16:52:11.120Z,36.11
2018-04-14T16:54:39.494Z,38.16
2018-04-14T16:57:07.877Z,37.35
2018-04-14T16:59:36.414Z,37.43
2018-04-14T17:02:04.933Z,37.92
2018-04-14T17:04:33.355Z,37.76
2018-04-14T17:07:01.761Z,41.18
2018-04-14T17:09:30.482Z,42.48
2018-04-14T17:11:59.505Z,43.28
2018-04-14T17:14:27.998Z,43.99
2018-04-14T17:16:56.417Z,45.91
2018-04-14T17:19:24.827Z,45.79
2018-04-14T17:21:53.262Z,46.14
2018-04-14T17:24:21.774Z,44.43
2018-04-14T17:26:50.157Z,46.54
2018-04-14T17:29:18.573Z,46.00
2018-04-14T17:31:47.025Z,45.94
2018-04-14T17:34:15.441Z,46.16
2018-04-14T17:36:44.521Z,46.25
2018-04-14T17:39:13.644Z,45.93
2018-04-14T17:41:42.124Z,45.56
2018-04-14T17:44:10.540Z,45.61
2018-04-14T17:46:39.075Z,45.74
2018-04-14T17:49:07.488Z,45.76
2018-04-14T17:51:35.925Z,46.22
2018-04-14T17:54:04.337Z,47.78
2018-04-14T17:56:32.760Z,47.35
2018-04-14T17:59:01.866Z,47.27
2018-04-14T18:01:30.332Z,46.58
2018-04-14T18:03:58.808Z,49.24
2018-04-14T18:06:27.231Z,47.77
2018-04-14T18:08:55.640Z,48.21
2018-04-14T18:11:24.184Z,49.31
2018-04-14T18:13:52.600Z,50.02
2018-04-14T18:16:21.012Z,49.46
2018-04-14T18:18:49.507Z,49.13
2018-04-14T18:21:17.932Z,48.90
2018-04-14T18:23:46.522Z,49.11
2018-04-14T18:26:15.506Z,49.56
2018-04-14T18:28:43.942Z,49.99
2018-04-14T18:31:12.367Z,50.66
2018-04-14T18:33:40.785Z,49.64
2018-04-14T18:36:09.277Z,49.08
2018-04-14T18:38:37.688Z,49.07
2018-04-14T18:41:06.092Z,50.20
2018-04-14T18:43:34.631Z,50.48
2018-04-14T18:46:03.072Z,50.54
2018-04-14T18:48:31.770Z,50.11
2018-04-14T18:51:00.475Z,50.27
2018-04-14T18:53:28.871Z,50.72
2018-04-14T18:55:57.348Z,51.12
2018-04-14T18:58:25.722Z,50.46
2018-04-14T19:00:54.188Z,51.93
2018-04-14T19:03:22.584Z,51.69
2018-04-14T19:05:51.012Z,51.52
2018-04-14T19:08:19.391Z,53.72
2018-04-14T19:10:47.771Z,52.98
2018-04-14T19:13:16.230Z,51.76
2018-04-14T19:15:46.459Z,52.52
2018-04-14T19:18:14.831Z,52.33
2018-04-14T19:20:43.206Z,52.30
2018-04-14T19:23:11.584Z,52.72
2018-04-14T19:25:40.050Z,52.86
2018-04-14T19:28:08.471Z,53.17
2018-04-14T19:30:36.877Z,53.68
2018-04-14T19:33:05.370Z,52.61
2018-04-14T19:35:33.773Z,52.56
2018-04-14T19:38:02.556Z,52.19
2018-04-14T19:40:30.946Z,52.37
2018-04-14T19:42:59.403Z,53.14
2018-04-14T19:45:27.821Z,53.23
2018-04-14T19:47:56.238Z,53.11
2018-04-14T19:50:24.640Z,52.68
2018-04-14T19:52:53.057Z,52.13
2018-04-14T19:55:21.507Z,52.91
2018-04-14T19:57:49.920Z,52.27
2018-04-14T20:00:18.347Z,52.38
2018-04-14T20:02:46.755Z,52.38
2018-04-14T20:05:15.719Z,51.30
2018-04-14T20:07:44.305Z,52.68
2018-04-14T20:10:12.739Z,53.69
2018-04-14T20:12:41.331Z,56.01
2018-04-14T20:15:09.766Z,55.64
2018-04-14T20:17:38.282Z,54.46
2018-04-14T20:20:06.811Z,53.25
2018-04-14T20:22:35.248Z,53.93
2018-04-14T20:25:03.656Z,56.16
2018-04-14T20:27:32.068Z,56.22
2018-04-14T20:30:00.485Z,58.18
2018-04-14T20:32:29.047Z,56.27
2018-04-14T20:34:57.935Z,56.96
2018-04-14T20:37:26.614Z,57.94
2018-04-14T20:39:55.140Z,55.53
2018-04-14T20:42:23.551Z,57.37
2018-04-14T20:44:52.074Z,57.00
2018-04-14T20:47:20.489Z,55.59
2018-04-14T20:49:49.055Z,55.81
2018-04-14T20:52:17.451Z,56.79
2018-04-14T20:54:46.808Z,54.95
2018-04-14T20:57:15.517Z,57.60
2018-04-14T20:59:43.913Z,57.80
2018-04-14T21:02:12.357Z,58.05
2018-04-14T21:04:40.770Z,56.16
2018-04-14T21:07:09.264Z,55.39
2018-04-14T21:09:37.643Z,56.62
2018-04-14T21:12:06.053Z,58.12
2018-04-14T21:14:34.571Z,59.51
2018-04-14T21:17:02.962Z,57.34
2018-04-14T21:19:32.195Z,59.62
2018-04-14T21:22:00.847Z,58.27
2018-04-14T21:24:29.251Z,58.01
2018-04-14T21:26:57.625Z,58.18
2018-04-14T21:29:25.994Z,57.21
2018-04-14T21:31:54.412Z,56.41
2018-04-14T21:34:22.888Z,56.02
2018-04-14T21:36:51.351Z,56.52
2018-04-14T21:39:19.745Z,56.83
2018-04-14T21:41:48.112Z,58.30
2018-04-14T21:44:16.817Z,57.74
2018-04-14T21:46:45.486Z,57.61
2018-04-14T21:49:13.868Z,57.67
2018-04-14T21:51:42.360Z,59.30
2018-04-14T21:54:10.719Z,57.59
2018-04-14T21:56:39.133Z,58.02
2018-04-14T21:59:07.523Z,57.99
2018-04-14T22:01:35.980Z,59.64
2018-04-14T22:04:04.383Z,60.53
2018-04-14T22:06:33.003Z,58.62
2018-04-14T22:09:01.448Z,60.10
2018-04-14T22:11:30.113Z,60.34
2018-04-14T22:13:58.601Z,59.06
2018-04-14T22:16:27.016Z,60.50
2018-04-14T22:18:55.401Z,59.28
2018-04-14T22:21:23.788Z,58.42
2018-04-14T22:23:52.150Z,59.77
2018-04-14T22:26:20.578Z,59.24
2018-04-14T22:28:49.038Z,59.76
2018-04-14T22:31:17.487Z,58.97
2018-04-14T22:33:46.121Z,58.86
2018-04-14T22:36:14.489Z,58.74
2018-04-14T22:38:42.946Z,57.46
2018-04-14T22:41:11.307Z,58.52
2018-04-14T22:43:39.688Z,59.29
2018-04-14T22:46:08.055Z,60.14
2018-04-14T22:48:36.422Z,58.54
2018-04-14T22:51:04.937Z,59.51
2018-04-14T22:53:33.305Z,58.64
2018-04-14T22:56:01.704Z,59.09
2018-04-14T22:58:30.116Z,58.68
2018-04-14T23:00:58.527Z,58.23
2018-04-14T23:03:26.877Z,58.58
2018-04-14T23:05:55.324Z,56.58
2018-04-14T23:08:23.684Z,59.29
2018-04-14T23:10:52.134Z,58.84
2018-04-14T23:13:20.494Z,59.41
2018-04-14T23:15:48.874Z,58.01
2018-04-14T23:18:17.289Z,57.29
2018-04-14T23:20:45.707Z,58.20
2018-04-14T23:23:14.753Z,58.16
2018-04-14T23:25:43.552Z,58.16
2018-04-14T23:28:12.101Z,57.03
2018-04-14T23:30:40.561Z,55.80
2018-04-14T23:33:08.948Z,56.03
2018-04-14T23:35:37.457Z,58.56
2018-04-14T23:38:05.855Z,59.05
2018-04-14T23:40:34.310Z,58.99
2018-04-14T23:43:02.726Z,59.98
2018-04-14T23:45:31.082Z,60.43
2018-04-14T23:47:59.467Z,61.09
2018-04-14T23:50:27.943Z,59.78
2018-04-14T23:52:56.319Z,60.15
2018-04-14T23:55:24.698Z,60.37
2018-04-14T23:57:53.350Z,61.01
